Time;durP1;ratioP1;P1;durP2;ratioP2;P2;SDS_P1;SDS_P2;PMS_P1;PMS_P2;Temp;Humidity;BMP_temperature;BMP_pressure;BME280_temperature;BME280_humidity;BME280_pressure;Samples;Min_cycle;Max_cycle;Signal;HPM_P1;HPM_P2
2024/04/10 00:00:58;;;;;;;4.13;2.50;;;11.70;99.90;;;;;;5436903;26;21028;-68
2024/04/10 00:03:23;;;;;;;4.83;2.27;;;11.60;99.90;;;;;;5464533;26;20460;-68
2024/04/10 00:05:59;;;;;;;6.33;2.47;;;11.50;99.90;;;;;;5468861;26;20623;-68
2024/04/10 00:08:27;;;;;;;5.77;2.20;;;11.50;99.90;;;;;;5478680;26;20735;-72
2024/04/10 00:10:53;;;;;;;4.80;2.50;;;11.40;99.90;;;;;;5457795;26;20582;-69
2024/04/10 00:13:19;;;;;;;5.53;2.83;;;11.50;99.90;;;;;;5469984;26;20833;-70
2024/04/10 00:15:44;;;;;;;4.97;2.33;;;11.40;99.90;;;;;;5462157;26;20338;-68
2024/04/10 00:18:10;;;;;;;3.37;2.20;;;11.30;99.90;;;;;;5470459;26;20231;-68
2024/04/10 00:20:36;;;;;;;3.63;2.30;;;11.40;99.90;;;;;;5459689;26;20269;-69
2024/04/10 00:23:05;;;;;;;6.60;2.63;;;11.30;99.90;;;;;;5463858;26;20274;-68
2024/04/10 00:25:31;;;;;;;3.20;2.30;;;11.40;99.90;;;;;;5459447;26;20512;-69
2024/04/10 00:27:57;;;;;;;6.97;2.73;;;11.20;99.90;;;;;;5467777;26;20464;-68
2024/04/10 00:30:23;;;;;;;3.90;3.30;;;11.20;99.90;;;;;;5462151;26;20458;-69
2024/04/10 00:32:49;;;;;;;4.43;2.37;;;11.20;99.90;;;;;;5460448;26;20611;-68
2024/04/10 00:35:14;;;;;;;3.50;2.23;;;11.20;99.90;;;;;;5459621;26;20283;-68
2024/04/10 00:37:40;;;;;;;6.50;2.40;;;11.20;99.90;;;;;;5473594;26;20239;-68
2024/04/10 00:40:08;;;;;;;4.87;2.30;;;11.30;99.90;;;;;;5435145;26;20253;-68
2024/04/10 00:42:33;;;;;;;3.37;2.10;;;11.30;99.90;;;;;;5472817;26;20637;-69
2024/04/10 00:44:59;;;;;;;2.77;2.20;;;11.20;99.90;;;;;;5459496;26;20464;-68
2024/04/10 00:47:25;;;;;;;6.63;2.20;;;11.20;99.90;;;;;;5463185;26;20287;-68
2024/04/10 00:49:50;;;;;;;3.00;2.13;;;11.10;99.90;;;;;;5469490;26;20226;-68
2024/04/10 00:52:17;;;;;;;4.30;2.30;;;11.10;99.90;;;;;;5460431;26;20242;-69
2024/04/10 00:54:45;;;;;;;4.87;2.30;;;11.10;99.90;;;;;;5438606;26;20247;-68
2024/04/10 00:57:10;;;;;;;3.07;2.23;;;11.00;99.90;;;;;;5465566;26;21175;-68
2024/04/10 00:59:36;;;;;;;4.97;2.50;;;11.00;99.90;;;;;;5454579;26;20454;-68
2024/04/10 01:02:04;;;;;;;4.80;2.50;;;10.90;99.90;;;;;;5466152;26;20243;-68
2024/04/10 01:04:30;;;;;;;3.37;2.27;;;10.80;99.90;;;;;;5468840;26;20581;-68
2024/04/10 01:06:55;;;;;;;4.73;2.23;;;10.80;99.90;;;;;;5465880;26;20460;-68
2024/04/10 01:09:21;;;;;;;5.67;3.03;;;10.80;99.90;;;;;;5468653;26;20243;-68
2024/04/10 01:11:47;;;;;;;11.97;2.80;;;10.80;99.90;;;;;;5427077;26;20254;-68
2024/04/10 01:14:13;;;;;;;8.57;2.43;;;10.80;99.90;;;;;;5462883;26;20291;-68
2024/04/10 01:16:38;;;;;;;5.43;2.20;;;10.80;99.90;;;;;;5464890;26;20235;-68
2024/04/10 01:19:06;;;;;;;5.70;2.57;;;10.80;99.90;;;;;;5462746;26;20236;-68
2024/04/10 01:21:31;;;;;;;7.20;2.73;;;10.70;99.90;;;;;;5464645;26;20621;-69
2024/04/10 01:23:57;;;;;;;8.90;2.60;;;10.70;99.90;;;;;;5467363;26;20468;-68
2024/04/10 01:26:22;;;;;;;7.63;2.87;;;10.60;99.90;;;;;;5466612;26;20277;-68
2024/04/10 01:28:48;;;;;;;7.93;3.13;;;10.50;99.90;;;;;;5467977;26;20664;-68
2024/04/10 01:31:14;;;;;;;6.27;2.43;;;10.50;99.90;;;;;;5465085;26;20820;-68
2024/04/10 01:33:39;;;;;;;4.07;2.57;;;10.70;99.90;;;;;;5461909;26;20247;-68
2024/04/10 01:36:06;;;;;;;4.13;2.23;;;10.70;99.90;;;;;;5465780;26;20231;-68
2024/04/10 01:38:31;;;;;;;5.67;2.50;;;10.70;99.90;;;;;;5458774;26;20677;-68
2024/04/10 01:40:57;;;;;;;5.33;2.57;;;10.80;99.90;;;;;;5465509;26;20581;-68
2024/04/10 01:43:22;;;;;;;3.63;2.30;;;10.70;99.90;;;;;;5467819;26;20219;-68
2024/04/10 01:45:48;;;;;;;6.23;2.33;;;10.70;99.90;;;;;;5467459;26;20282;-68
2024/04/10 01:48:13;;;;;;;3.27;2.50;;;10.70;99.90;;;;;;5460003;26;20323;-68
2024/04/10 01:50:39;;;;;;;4.43;2.80;;;10.70;99.90;;;;;;5457796;26;20243;-68
2024/04/10 01:53:05;;;;;;;3.70;2.33;;;10.60;99.90;;;;;;5461757;26;20224;-68
2024/04/10 01:55:30;;;;;;;4.80;2.50;;;10.60;99.90;;;;;;5458869;26;20290;-68
2024/04/10 01:57:56;;;;;;;4.10;2.40;;;10.70;99.90;;;;;;5465144;26;20227;-68
2024/04/10 02:00:24;;;;;;;4.57;2.37;;;10.70;99.90;;;;;;5463464;26;20243;-68
2024/04/10 02:02:50;;;;;;;4.60;2.50;;;10.60;99.90;;;;;;5464979;26;20306;-68
2024/04/10 02:05:15;;;;;;;5.13;2.47;;;10.70;99.90;;;;;;5463549;26;20472;-68
2024/04/10 02:07:42;;;;;;;4.10;1.90;;;10.70;99.90;;;;;;5462454;26;20219;-68
2024/04/10 02:10:07;;;;;;;3.53;2.40;;;10.80;99.90;;;;;;5467716;26;20274;-68
2024/04/10 02:12:33;;;;;;;8.07;2.63;;;10.90;99.90;;;;;;5464372;26;20456;-68
2024/04/10 02:14:58;;;;;;;4.17;2.13;;;10.90;99.90;;;;;;5460570;26;20282;-68
2024/04/10 02:17:24;;;;;;;12.53;4.70;;;10.80;99.90;;;;;;5461317;26;20291;-68
2024/04/10 02:19:50;;;;;;;6.07;2.40;;;10.80;99.90;;;;;;5456302;26;20617;-68
2024/04/10 02:22:16;;;;;;;5.50;2.77;;;10.80;99.90;;;;;;5458116;26;20242;-69
2024/04/10 02:24:41;;;;;;;4.00;2.33;;;10.80;99.90;;;;;;5425540;26;20545;-68
2024/04/10 02:27:07;;;;;;;5.23;2.20;;;10.70;99.90;;;;;;5459864;26;20293;-68
2024/04/10 02:29:33;;;;;;;8.20;2.57;;;10.70;99.90;;;;;;5457856;26;20277;-68
2024/04/10 02:33:09;;;;;;;13.40;3.13;;;10.70;99.90;;;;;;5451752;25;20666;-68
2024/04/10 02:35:35;;;;;;;7.97;2.77;;;10.80;99.90;;;;;;5443741;26;20478;-68
2024/04/10 02:38:01;;;;;;;3.80;2.20;;;10.80;99.90;;;;;;5447534;26;20235;-68
2024/04/10 02:40:29;;;;;;;8.00;2.57;;;10.70;99.90;;;;;;5445668;26;20735;-68
2024/04/10 02:43:04;;;;;;;4.17;2.27;;;10.70;99.90;;;;;;5439892;26;20291;-68
2024/04/10 02:45:30;;;;;;;4.17;2.80;;;10.70;99.90;;;;;;5449029;26;21002;-68
2024/04/10 02:47:56;;;;;;;6.30;2.93;;;10.80;99.90;;;;;;5441013;26;21052;-68
2024/04/10 02:50:21;;;;;;;7.43;2.80;;;10.80;99.90;;;;;;5460647;26;20504;-68
2024/04/10 02:52:47;;;;;;;6.23;2.53;;;10.80;99.90;;;;;;5465994;25;20274;-69
2024/04/10 02:55:13;;;;;;;6.07;2.23;;;10.80;99.90;;;;;;5446249;26;20235;-68
2024/04/10 02:57:38;;;;;;;5.20;3.73;;;10.80;99.90;;;;;;5455173;26;20230;-68
2024/04/10 03:00:05;;;;;;;8.17;3.03;;;10.80;99.90;;;;;;5449540;26;20990;-68
2024/04/10 03:02:33;;;;;;;4.60;2.60;;;10.80;99.90;;;;;;5455317;26;20273;-68
2024/04/10 03:05:02;;;;;;;6.77;2.67;;;10.80;99.90;;;;;;5448553;26;20533;-68
2024/04/10 03:07:28;;;;;;;7.10;2.70;;;10.90;99.90;;;;;;5460677;26;20475;-68
2024/04/10 03:09:54;;;;;;;6.90;2.77;;;10.90;99.90;;;;;;5451991;26;20470;-68
2024/04/10 03:12:19;;;;;;;4.60;2.40;;;10.80;99.90;;;;;;5458499;26;20503;-68
2024/04/10 03:14:45;;;;;;;7.73;3.27;;;10.80;99.90;;;;;;5445611;26;20271;-68
2024/04/10 03:17:16;;;;;;;3.90;2.50;;;10.90;99.90;;;;;;5452192;26;20814;-68
2024/04/10 03:19:41;;;;;;;6.63;3.00;;;11.00;99.90;;;;;;5451122;26;20329;-68
2024/04/10 03:22:08;;;;;;;4.47;2.13;;;10.80;99.90;;;;;;5457253;25;20480;-68
2024/04/10 03:24:34;;;;;;;5.40;2.50;;;10.80;99.90;;;;;;5454323;26;20227;-68
2024/04/10 03:26:59;;;;;;;6.90;2.67;;;10.80;99.90;;;;;;5449797;26;20462;-68
2024/04/10 03:29:26;;;;;;;4.30;2.83;;;10.90;99.90;;;;;;5456624;26;20222;-68
2024/04/10 03:31:53;;;;;;;5.30;2.30;;;10.90;99.90;;;;;;5437655;26;20236;-69
2024/04/10 03:34:18;;;;;;;9.70;2.80;;;10.90;99.90;;;;;;5458407;26;20465;-69
2024/04/10 03:36:44;;;;;;;6.20;2.50;;;10.90;99.90;;;;;;5456113;25;20505;-68
2024/04/10 03:39:11;;;;;;;8.13;2.50;;;10.90;99.90;;;;;;5458424;26;21302;-68
2024/04/10 03:41:37;;;;;;;8.83;2.67;;;10.80;99.90;;;;;;5453841;26;20552;-69
2024/04/10 03:44:05;;;;;;;4.30;2.40;;;10.80;99.90;;;;;;5458484;25;20848;-69
2024/04/10 03:46:32;;;;;;;5.00;2.73;;;10.80;99.90;;;;;;5439029;26;20511;-69
2024/04/10 03:48:58;;;;;;;6.83;2.70;;;10.70;99.90;;;;;;5424895;26;20451;-69
2024/04/10 03:51:23;;;;;;;4.13;2.63;;;10.70;99.90;;;;;;5441093;26;20908;-69
2024/04/10 03:53:49;;;;;;;4.80;2.20;;;10.60;99.90;;;;;;5425284;26;21485;-69
2024/04/10 03:56:14;;;;;;;5.80;2.47;;;10.70;99.90;;;;;;5427052;26;20781;-69
2024/04/10 03:58:40;;;;;;;3.63;2.33;;;10.60;99.90;;;;;;5422631;26;20331;-69
2024/04/10 04:01:08;;;;;;;5.60;2.83;;;10.70;99.90;;;;;;5427039;26;20244;-69
2024/04/10 04:03:35;;;;;;;6.20;2.80;;;10.50;99.90;;;;;;5432303;26;20228;-69
2024/04/10 04:06:01;;;;;;;7.00;3.30;;;10.40;99.90;;;;;;5423199;26;20481;-68
2024/04/10 04:08:27;;;;;;;8.37;3.00;;;10.40;99.90;;;;;;5422332;26;20560;-69
2024/04/10 04:10:54;;;;;;;9.07;2.70;;;10.40;99.90;;;;;;5417916;26;20231;-68
2024/04/10 04:13:20;;;;;;;7.67;2.87;;;10.30;99.90;;;;;;5420730;26;20445;-68
2024/04/10 04:15:46;;;;;;;3.23;2.30;;;10.20;99.90;;;;;;5420878;26;20445;-68
2024/04/10 04:18:11;;;;;;;10.63;3.73;;;10.30;99.90;;;;;;5414175;26;20772;-68
2024/04/10 04:20:37;;;;;;;5.17;2.40;;;10.20;99.90;;;;;;5429000;26;20236;-68
2024/04/10 04:23:02;;;;;;;6.83;3.00;;;10.10;99.90;;;;;;5419467;26;20272;-68
2024/04/10 04:25:30;;;;;;;8.73;2.80;;;10.00;99.90;;;;;;5427520;26;20273;-68
2024/04/10 04:27:56;;;;;;;4.90;2.40;;;10.10;99.90;;;;;;5418553;26;20236;-68
2024/04/10 04:30:22;;;;;;;6.80;3.13;;;10.10;99.90;;;;;;5423793;26;20451;-69
2024/04/10 04:32:48;;;;;;;5.03;2.37;;;10.10;99.90;;;;;;5423886;26;20457;-68
2024/04/10 04:35:14;;;;;;;4.33;2.60;;;10.10;99.90;;;;;;5429031;26;20358;-68
2024/04/10 04:37:40;;;;;;;4.60;2.70;;;10.10;99.90;;;;;;5429008;26;20521;-68
2024/04/10 04:40:06;;;;;;;5.33;2.40;;;10.10;99.90;;;;;;5424974;26;20519;-68
2024/04/10 04:42:32;;;;;;;4.60;2.97;;;10.00;99.90;;;;;;5426775;26;20267;-69
2024/04/10 04:44:58;;;;;;;3.70;2.47;;;10.00;99.90;;;;;;5430784;26;21134;-68
2024/04/10 04:47:23;;;;;;;8.07;2.73;;;9.90;99.90;;;;;;5423474;26;20449;-68
2024/04/10 04:49:49;;;;;;;6.30;2.87;;;9.90;99.90;;;;;;5432768;26;20270;-68
2024/04/10 04:52:14;;;;;;;5.37;2.47;;;9.90;99.90;;;;;;5424564;26;23190;-68
2024/04/10 04:54:40;;;;;;;4.53;2.40;;;9.90;99.90;;;;;;5418649;26;20734;-67
2024/04/10 04:57:09;;;;;;;11.00;2.77;;;9.90;99.90;;;;;;5431788;26;20278;-68
2024/04/10 04:59:34;;;;;;;6.77;3.03;;;9.80;99.90;;;;;;5433701;26;20243;-68
2024/04/10 05:02:00;;;;;;;8.23;2.80;;;9.80;99.90;;;;;;5436157;26;21248;-68
2024/04/10 05:07:10;;;;;;;7.50;2.67;;;9.80;99.90;;;;;;5421279;26;20270;-67
2024/04/10 05:09:35;;;;;;;7.27;2.50;;;9.80;99.90;;;;;;5424678;26;20457;-68
2024/04/10 05:12:01;;;;;;;4.97;2.50;;;9.80;99.90;;;;;;5426766;26;20526;-67
2024/04/10 05:14:27;;;;;;;7.90;2.57;;;9.70;99.90;;;;;;5427589;26;20278;-68
2024/04/10 05:16:53;;;;;;;5.13;2.30;;;9.60;99.90;;;;;;5420063;26;20477;-67
2024/04/10 05:19:18;;;;;;;13.60;2.93;;;9.60;99.90;;;;;;5425651;26;20271;-68
2024/04/10 05:21:44;;;;;;;6.43;2.87;;;9.60;99.90;;;;;;5432836;26;20258;-68
2024/04/10 05:24:09;;;;;;;6.83;2.70;;;9.60;99.90;;;;;;5422712;26;20241;-67
2024/04/10 05:26:36;;;;;;;8.77;2.90;;;9.60;99.90;;;;;;5424331;26;20734;-69
2024/04/10 05:29:02;;;;;;;6.17;3.00;;;9.60;99.90;;;;;;5427632;26;20229;-68
2024/04/10 05:31:27;;;;;;;7.00;2.57;;;9.60;99.90;;;;;;5419704;26;20483;-68
2024/04/10 05:33:53;;;;;;;5.90;2.60;;;9.60;99.90;;;;;;5415091;26;20235;-68
2024/04/10 05:36:19;;;;;;;7.53;2.90;;;9.60;99.90;;;;;;5422410;26;20255;-68
2024/04/10 05:38:45;;;;;;;5.60;2.23;;;9.60;99.90;;;;;;5414284;26;20719;-68
2024/04/10 05:41:10;;;;;;;5.63;2.70;;;9.70;99.90;;;;;;5420503;26;20246;-66
2024/04/10 05:43:36;;;;;;;4.90;2.90;;;9.60;99.90;;;;;;5418477;26;20584;-66
2024/04/10 05:46:02;;;;;;;9.10;3.20;;;9.60;99.90;;;;;;5423409;26;20288;-66
2024/04/10 05:48:28;;;;;;;6.43;3.23;;;9.60;99.90;;;;;;5450234;26;20266;-66
2024/04/10 05:51:00;;;;;;;4.87;3.40;;;9.60;99.90;;;;;;5434232;26;20470;-66
2024/04/10 05:53:26;;;;;;;6.13;3.17;;;9.60;99.90;;;;;;5439437;26;20300;-66
2024/04/10 05:55:52;;;;;;;4.10;2.33;;;9.50;99.90;;;;;;5437108;26;21210;-66
2024/04/10 05:58:18;;;;;;;7.20;2.70;;;9.50;99.90;;;;;;5426822;26;20518;-66
2024/04/10 06:00:44;;;;;;;4.70;2.63;;;9.50;99.90;;;;;;5415800;26;20274;-66
2024/04/10 06:03:09;;;;;;;4.73;3.17;;;9.60;99.90;;;;;;5443112;26;20465;-66
2024/04/10 06:05:35;;;;;;;5.40;2.70;;;9.60;99.90;;;;;;5437636;26;20478;-67
2024/04/10 06:08:00;;;;;;;7.30;3.13;;;9.60;99.90;;;;;;5441911;26;20919;-67
2024/04/10 06:10:26;;;;;;;4.50;2.30;;;9.60;99.90;;;;;;5421951;26;20288;-66
2024/04/10 06:12:52;;;;;;;6.70;2.60;;;9.70;99.90;;;;;;5444791;26;20256;-67
2024/04/10 06:15:18;;;;;;;5.50;2.93;;;9.70;99.90;;;;;;5421251;26;20304;-67
2024/04/10 06:17:43;;;;;;;4.53;2.63;;;9.70;99.90;;;;;;5423460;26;20571;-67
2024/04/10 06:20:11;;;;;;;6.33;2.90;;;9.70;99.90;;;;;;5412325;26;20293;-66
2024/04/10 06:22:39;;;;;;;9.70;2.70;;;9.80;99.90;;;;;;5416111;26;20657;-67
2024/04/10 06:25:05;;;;;;;6.87;2.73;;;9.80;99.90;;;;;;5418047;26;20514;-66
2024/04/10 06:27:31;;;;;;;12.83;3.00;;;10.00;99.90;;;;;;5430858;26;20528;-67
2024/04/10 06:29:56;;;;;;;6.37;2.93;;;9.90;99.90;;;;;;5411984;26;20232;-69
2024/04/10 06:32:22;;;;;;;7.47;3.80;;;10.00;99.90;;;;;;5418240;26;20840;-69
2024/04/10 06:34:47;;;;;;;6.83;2.40;;;10.10;99.90;;;;;;5426277;26;20632;-69
2024/04/10 06:37:15;;;;;;;7.43;3.20;;;10.10;99.90;;;;;;5415945;26;20280;-68
2024/04/10 06:39:41;;;;;;;10.73;2.80;;;10.10;99.90;;;;;;5417677;26;20233;-69
2024/04/10 06:42:06;;;;;;;6.73;2.83;;;10.30;99.90;;;;;;5426775;26;20480;-69
2024/04/10 06:44:32;;;;;;;7.70;3.40;;;10.30;99.90;;;;;;5417667;26;20299;-70
2024/04/10 06:46:57;;;;;;;3.40;2.20;;;10.30;99.90;;;;;;5429329;26;20235;-69
2024/04/10 06:49:23;;;;;;;8.33;2.70;;;10.20;99.90;;;;;;5418761;26;20341;-69
2024/04/10 06:51:48;;;;;;;8.03;2.83;;;10.20;99.90;;;;;;5447938;26;20240;-69
2024/04/10 06:54:15;;;;;;;5.87;2.90;;;10.20;99.90;;;;;;5420659;26;20251;-69
2024/04/10 06:56:41;;;;;;;7.70;3.07;;;10.20;99.90;;;;;;5423017;26;20220;-69
2024/04/10 06:59:07;;;;;;;6.70;2.90;;;10.20;99.90;;;;;;5415922;26;20453;-68
2024/04/10 07:01:33;;;;;;;7.43;2.87;;;10.20;99.90;;;;;;5418424;26;20509;-67
2024/04/10 07:03:58;;;;;;;10.13;3.67;;;10.20;99.90;;;;;;5419012;26;21043;-68
2024/04/10 07:06:24;;;;;;;6.83;2.83;;;10.20;99.90;;;;;;5419970;26;20221;-68
2024/04/10 07:08:56;;;;;;;8.63;2.90;;;10.30;99.90;;;;;;5416804;26;20989;-68
2024/04/10 07:11:21;;;;;;;4.33;2.80;;;10.40;99.90;;;;;;5423993;26;20688;-68
2024/04/10 07:13:49;;;;;;;6.90;2.90;;;10.40;99.90;;;;;;5422217;26;20454;-68
2024/04/10 07:16:15;;;;;;;4.53;2.63;;;10.30;99.90;;;;;;5425849;26;20276;-68
2024/04/10 07:18:40;;;;;;;4.43;2.63;;;10.30;99.90;;;;;;5433968;26;20523;-68
2024/04/10 07:21:12;;;;;;;7.73;3.03;;;10.40;99.90;;;;;;5422094;26;20501;-68
2024/04/10 07:23:42;;;;;;;4.97;2.67;;;10.40;99.90;;;;;;5417123;26;20515;-68
2024/04/10 07:26:09;;;;;;;10.17;3.40;;;10.40;99.90;;;;;;5427356;26;20465;-68
2024/04/10 07:28:35;;;;;;;9.67;2.67;;;10.40;99.90;;;;;;5425259;26;20585;-68
2024/04/10 07:31:01;;;;;;;8.00;2.77;;;10.50;99.90;;;;;;5425482;26;20756;-68
2024/04/10 07:33:26;;;;;;;7.30;3.30;;;10.50;99.90;;;;;;5432128;26;20506;-68
2024/04/10 07:35:52;;;;;;;12.87;3.27;;;10.60;99.90;;;;;;5418981;26;20462;-68
2024/04/10 07:38:18;;;;;;;10.33;3.43;;;10.70;99.90;;;;;;5424758;26;20244;-68
2024/04/10 07:40:53;;;;;;;7.90;2.77;;;10.70;99.90;;;;;;5423517;26;20300;-67
2024/04/10 07:43:19;;;;;;;10.60;2.93;;;10.80;99.90;;;;;;5424227;26;20235;-67
2024/04/10 07:45:44;;;;;;;11.27;3.13;;;10.80;99.90;;;;;;5428203;26;20501;-68
2024/04/10 07:48:10;;;;;;;9.17;3.17;;;10.70;99.90;;;;;;5414135;26;20236;-68
2024/04/10 07:50:36;;;;;;;5.27;2.67;;;10.80;99.90;;;;;;5416736;26;20391;-69
2024/04/10 07:53:01;;;;;;;11.10;3.40;;;10.90;99.90;;;;;;5426804;26;20232;-69
2024/04/10 07:55:27;;;;;;;6.13;2.90;;;11.00;99.90;;;;;;5421749;26;20274;-68
2024/04/10 07:57:52;;;;;;;11.00;3.30;;;11.00;99.90;;;;;;5426569;26;20224;-67
2024/04/10 08:00:18;;;;;;;9.23;3.07;;;11.10;99.90;;;;;;5414138;26;20233;-67
2024/04/10 08:02:44;;;;;;;8.73;3.00;;;11.10;99.90;;;;;;5419842;26;20216;-67
2024/04/10 08:05:10;;;;;;;8.17;3.50;;;11.20;99.90;;;;;;5428884;26;20275;-67
2024/04/10 08:07:36;;;;;;;10.97;3.40;;;11.30;99.90;;;;;;5434037;26;20228;-68
2024/04/10 08:10:03;;;;;;;9.23;2.70;;;11.30;99.90;;;;;;5441127;26;20681;-68
2024/04/10 08:12:30;;;;;;;11.67;3.40;;;11.30;99.90;;;;;;5440391;26;20506;-69
2024/04/10 08:14:56;;;;;;;8.93;3.53;;;11.50;99.90;;;;;;5442311;26;20445;-69
2024/04/10 08:17:22;;;;;;;14.53;6.20;;;11.50;99.90;;;;;;5435846;26;20459;-69
2024/04/10 08:19:47;;;;;;;16.87;5.40;;;11.50;99.90;;;;;;5430189;26;20572;-67
2024/04/10 08:22:13;;;;;;;15.20;3.93;;;11.60;99.90;;;;;;5419197;26;20242;-68
2024/04/10 08:24:39;;;;;;;10.87;3.50;;;11.70;99.90;;;;;;5436892;26;20232;-68
2024/04/10 08:27:05;;;;;;;13.70;4.53;;;11.80;99.90;;;;;;5422441;26;21244;-67
2024/04/10 08:29:31;;;;;;;6.80;3.40;;;11.80;99.90;;;;;;5428780;26;20793;-67
2024/04/10 08:31:58;;;;;;;19.30;5.23;;;11.90;99.90;;;;;;5430548;26;20546;-67
2024/04/10 08:34:24;;;;;;;8.20;3.00;;;12.00;99.90;;;;;;5425925;26;20970;-70
2024/04/10 08:36:50;;;;;;;11.50;3.47;;;12.10;99.90;;;;;;5425363;26;20450;-70
2024/04/10 08:39:17;;;;;;;6.33;3.20;;;12.10;99.90;;;;;;5424537;26;20268;-70
2024/04/10 08:41:43;;;;;;;12.37;4.23;;;12.30;99.90;;;;;;5424921;26;20265;-72
2024/04/10 08:44:08;;;;;;;12.53;3.60;;;12.30;99.90;;;;;;5429549;26;20460;-71
2024/04/10 08:46:37;;;;;;;8.87;3.73;;;12.40;99.90;;;;;;5429939;26;20516;-71
2024/04/10 08:49:04;;;;;;;10.90;3.53;;;12.50;99.90;;;;;;5426606;26;20279;-72
2024/04/10 08:51:32;;;;;;;5.10;3.10;;;12.50;99.90;;;;;;5428567;26;20500;-71
2024/04/10 08:53:58;;;;;;;13.00;3.40;;;12.60;99.90;;;;;;5429433;26;20525;-71
2024/04/10 08:56:25;;;;;;;7.83;3.17;;;12.70;99.90;;;;;;5430454;26;20513;-71
2024/04/10 08:58:53;;;;;;;9.57;3.80;;;12.60;99.90;;;;;;5431385;26;20589;-71
2024/04/10 09:01:33;;;;;;;11.17;3.70;;;12.70;99.90;;;;;;5424838;26;20469;-71
2024/04/10 09:04:08;;;;;;;7.33;3.90;;;12.70;99.90;;;;;;5426987;26;20454;-71
2024/04/10 09:06:34;;;;;;;9.73;3.30;;;12.80;99.90;;;;;;5430625;26;20848;-71
2024/04/10 09:09:01;;;;;;;10.17;3.53;;;12.90;99.90;;;;;;5431860;26;20458;-72
2024/04/10 09:11:27;;;;;;;8.90;3.00;;;13.00;99.90;;;;;;5434710;26;20603;-72
2024/04/10 09:14:03;;;;;;;9.10;3.37;;;13.00;99.90;;;;;;5426439;26;20604;-70
2024/04/10 09:16:29;;;;;;;10.77;3.80;;;13.20;99.90;;;;;;5430293;26;20459;-70
2024/04/10 09:18:55;;;;;;;9.80;3.50;;;13.50;99.90;;;;;;5415519;26;20577;-70
2024/04/10 09:21:20;;;;;;;10.77;3.80;;;13.70;99.90;;;;;;5437229;26;20465;-70
2024/04/10 09:23:46;;;;;;;7.60;4.03;;;13.90;99.90;;;;;;5428826;26;21000;-71
2024/04/10 09:26:20;;;;;;;10.97;3.83;;;13.90;99.90;;;;;;5424389;26;20304;-71
2024/04/10 09:28:46;;;;;;;7.20;3.40;;;14.00;99.90;;;;;;5432866;26;20231;-71
2024/04/10 09:31:20;;;;;;;7.03;3.03;;;14.00;99.90;;;;;;5422309;26;21158;-70
2024/04/10 09:33:48;;;;;;;5.73;3.50;;;13.90;99.90;;;;;;5428432;26;20255;-71
2024/04/10 09:36:15;;;;;;;6.60;3.10;;;13.90;99.90;;;;;;5420969;26;20623;-71
2024/04/10 09:38:41;;;;;;;9.40;3.13;;;13.90;99.90;;;;;;5429439;26;20453;-71
2024/04/10 09:41:07;;;;;;;7.20;3.10;;;13.80;99.90;;;;;;5428686;26;20554;-71
2024/04/10 09:43:35;;;;;;;10.90;4.60;;;14.00;99.90;;;;;;5422452;26;20240;-71
2024/04/10 09:46:03;;;;;;;10.43;3.47;;;14.20;99.90;;;;;;5427996;26;20539;-71
2024/04/10 09:48:34;;;;;;;8.60;3.50;;;14.40;99.90;;;;;;5429073;26;20537;-71
2024/04/10 09:51:04;;;;;;;8.23;3.90;;;14.50;99.90;;;;;;5424194;26;20516;-70
2024/04/10 09:53:32;;;;;;;6.50;3.00;;;14.50;99.90;;;;;;5425074;26;20459;-70
2024/04/10 09:56:00;;;;;;;9.40;3.50;;;14.40;99.90;;;;;;5422025;26;20874;-72
2024/04/10 09:58:26;;;;;;;7.23;3.70;;;14.50;99.90;;;;;;5427768;26;20531;-71
2024/04/10 10:00:51;;;;;;;12.73;4.60;;;14.60;99.90;;;;;;5428494;26;20819;-72
2024/04/10 10:03:24;;;;;;;8.43;3.10;;;14.70;99.90;;;;;;5431194;26;20581;-71
2024/04/10 10:06:03;;;;;;;6.23;3.20;;;14.90;99.90;;;;;;5425043;26;20284;-71
2024/04/10 10:08:29;;;;;;;8.77;3.10;;;15.00;99.90;;;;;;5424683;26;20464;-71
2024/04/10 10:10:56;;;;;;;9.83;3.33;;;15.20;99.90;;;;;;5424302;26;20505;-72
2024/04/10 10:13:34;;;;;;;6.93;3.10;;;15.30;99.70;;;;;;5420931;26;20598;-72
2024/04/10 10:16:02;;;;;;;9.60;3.70;;;15.30;98.10;;;;;;5438734;26;20793;-70
2024/04/10 10:18:28;;;;;;;10.10;3.43;;;15.20;98.40;;;;;;5437046;26;20505;-71
2024/04/10 10:21:21;;;;;;;7.73;3.50;;;15.20;98.40;;;;;;5436851;26;20465;-71
2024/04/10 10:24:04;;;;;;;7.53;3.57;;;15.10;99.50;;;;;;5443030;26;21104;-70
2024/04/10 10:26:30;;;;;;;10.77;3.83;;;15.00;99.70;;;;;;5424050;26;20461;-69
2024/04/10 10:29:03;;;;;;;11.87;3.80;;;14.90;99.80;;;;;;5438631;26;20521;-71
2024/04/10 10:31:28;;;;;;;6.43;3.90;;;14.80;99.90;;;;;;5428186;26;20523;-71
2024/04/10 10:34:04;;;;;;;7.00;3.50;;;14.70;99.90;;;;;;5424175;26;20458;-70
2024/04/10 10:36:34;;;;;;;13.43;4.00;;;14.70;99.90;;;;;;5418639;26;20289;-71
2024/04/10 10:39:08;;;;;;;8.40;3.73;;;14.70;99.90;;;;;;5428645;26;20450;-71
2024/04/10 10:41:34;;;;;;;11.07;3.27;;;14.70;99.70;;;;;;5426981;26;20528;-71
2024/04/10 10:44:00;;;;;;;5.30;3.20;;;14.70;99.30;;;;;;5422897;26;21011;-71
2024/04/10 10:46:26;;;;;;;10.60;3.83;;;14.70;98.50;;;;;;5418698;26;20372;-72
2024/04/10 10:48:53;;;;;;;14.50;4.20;;;14.60;98.40;;;;;;5418689;26;20547;-72
2024/04/10 10:51:19;;;;;;;10.13;3.50;;;14.50;99.60;;;;;;5420255;26;20466;-71
2024/04/10 10:53:45;;;;;;;9.83;3.73;;;14.60;99.10;;;;;;5415052;26;21372;-71
2024/04/10 10:56:11;;;;;;;5.33;3.30;;;14.80;99.30;;;;;;5422014;26;20235;-71
2024/04/10 10:58:37;;;;;;;6.97;3.53;;;14.90;99.20;;;;;;5439377;26;21088;-71
2024/04/10 11:01:09;;;;;;;7.83;3.47;;;15.10;99.30;;;;;;5417232;26;20287;-71
2024/04/10 11:03:34;;;;;;;9.13;3.50;;;15.20;99.00;;;;;;5426995;26;21034;-71
2024/04/10 11:06:10;;;;;;;8.23;3.10;;;15.40;98.10;;;;;;5424091;26;20450;-71
2024/04/10 11:08:36;;;;;;;7.07;4.33;;;15.50;97.90;;;;;;5432691;26;20248;-71
2024/04/10 11:11:04;;;;;;;11.23;3.30;;;15.70;97.60;;;;;;5450391;26;20462;-71
2024/04/10 11:13:30;;;;;;;7.47;3.50;;;15.80;95.40;;;;;;5429448;26;20596;-71
2024/04/10 11:15:58;;;;;;;9.43;4.80;;;15.90;95.60;;;;;;5426712;26;20447;-71
2024/04/10 11:18:24;;;;;;;12.83;3.50;;;16.10;95.10;;;;;;5425347;26;20975;-72
2024/04/10 11:20:51;;;;;;;8.23;3.00;;;16.20;94.40;;;;;;5427600;26;21006;-71
2024/04/10 11:23:17;;;;;;;6.90;3.53;;;16.30;92.90;;;;;;5423738;26;20579;-72
2024/04/10 11:25:44;;;;;;;6.23;3.37;;;16.40;93.20;;;;;;5433158;26;20454;-71
2024/04/10 11:28:10;;;;;;;7.50;3.60;;;16.50;92.50;;;;;;5421817;26;20556;-71
2024/04/10 11:30:36;;;;;;;8.50;4.63;;;16.50;92.10;;;;;;5418103;26;20606;-72
2024/04/10 11:33:04;;;;;;;8.17;4.47;;;16.50;91.40;;;;;;5414563;26;20463;-72
2024/04/10 11:35:31;;;;;;;9.17;4.50;;;16.60;91.80;;;;;;5409342;26;20583;-72
2024/04/10 11:37:56;;;;;;;7.50;3.83;;;16.70;92.10;;;;;;5429850;26;20515;-72
2024/04/10 11:40:23;;;;;;;9.43;3.53;;;16.90;92.10;;;;;;5423847;26;20456;-72
2024/04/10 11:42:49;;;;;;;5.43;3.53;;;17.10;91.00;;;;;;5422015;26;20229;-72
2024/04/10 11:45:16;;;;;;;9.07;3.77;;;17.30;90.30;;;;;;5421974;26;20451;-72
2024/04/10 11:47:43;;;;;;;7.27;3.40;;;17.50;90.10;;;;;;5421911;26;20544;-72
2024/04/10 11:50:11;;;;;;;5.80;3.00;;;17.60;89.20;;;;;;5420201;26;20552;-73
2024/04/10 11:52:37;;;;;;;8.27;2.63;;;17.60;87.80;;;;;;5438163;26;20492;-72
2024/04/10 11:55:04;;;;;;;5.63;3.03;;;17.80;86.70;;;;;;5424213;26;20515;-72
2024/04/10 11:57:30;;;;;;;14.50;3.90;;;17.80;85.80;;;;;;5428449;26;20546;-73
2024/04/10 11:59:56;;;;;;;6.10;3.10;;;17.90;86.30;;;;;;5416329;26;20583;-73
2024/04/10 12:02:22;;;;;;;5.93;2.80;;;18.20;84.90;;;;;;5425535;26;21042;-73
2024/04/10 12:04:52;;;;;;;10.00;3.70;;;18.30;84.10;;;;;;5415163;26;20221;-72
2024/04/10 12:07:18;;;;;;;12.27;7.20;;;18.50;83.40;;;;;;5427783;26;20501;-73
2024/04/10 12:09:45;;;;;;;10.33;5.73;;;18.80;83.00;;;;;;5420335;26;20515;-72
2024/04/10 12:12:11;;;;;;;15.40;7.63;;;18.80;81.40;;;;;;5424945;26;20474;-73
2024/04/10 12:14:37;;;;;;;6.07;3.87;;;18.70;78.80;;;;;;5424922;26;21089;-73
2024/04/10 12:17:03;;;;;;;5.93;3.20;;;18.60;79.10;;;;;;5425614;26;20281;-71
2024/04/10 12:19:30;;;;;;;10.17;4.03;;;18.70;78.20;;;;;;5425525;26;20507;-71
2024/04/10 12:21:55;;;;;;;13.93;3.50;;;18.70;74.50;;;;;;5423254;26;20469;-72
2024/04/10 12:24:21;;;;;;;5.90;3.07;;;18.50;74.40;;;;;;5431570;26;20518;-72
2024/04/10 12:26:48;;;;;;;4.80;2.90;;;18.40;75.10;;;;;;5423405;26;20266;-72
2024/04/10 12:29:13;;;;;;;5.60;3.07;;;18.50;75.30;;;;;;5430690;26;20309;-72
2024/04/10 12:31:39;;;;;;;5.83;2.80;;;18.50;74.60;;;;;;5419771;26;21390;-71
2024/04/10 12:34:05;;;;;;;6.20;3.23;;;18.40;73.70;;;;;;5401980;26;20274;-71
2024/04/10 12:39:17;;;;;;;9.77;3.50;;;18.00;73.10;;;;;;5418567;26;20276;-72
2024/04/10 12:41:49;;;;;;;6.63;3.03;;;17.90;73.00;;;;;;5419005;26;20492;-72
2024/04/10 12:44:24;;;;;;;5.50;2.90;;;17.70;71.50;;;;;;5419901;26;20461;-71
2024/04/10 12:46:53;;;;;;;5.07;3.30;;;17.30;70.50;;;;;;5426193;26;21077;-71
2024/04/10 12:49:20;;;;;;;4.67;3.40;;;17.10;71.40;;;;;;5429207;26;20826;-72